Time;durP1;ratioP1;P1;durP2;ratioP2;P2;SDS_P1;SDS_P2;PMS_P1;PMS_P2;Temp;Humidity;BMP_temperature;BMP_pressure;BME280_temperature;BME280_humidity;BME280_pressure;Samples;Min_cycle;Max_cycle;Signal;HPM_P1;HPM_P2
2023/12/25 00:02:06;;;;;;;7.45;4.18;;;;;;;2.06;67.12;97687.41;4864854;29;20041;-74
2023/12/25 00:04:43;;;;;;;9.50;4.32;;;;;;;2.13;66.71;97719.00;4875845;29;20112;-74
2023/12/25 00:07:11;;;;;;;6.88;4.13;;;;;;;2.01;66.75;97717.38;4879938;29;20151;-74
2023/12/25 00:09:39;;;;;;;9.25;4.10;;;;;;;1.75;67.27;97679.94;4863527;29;20037;-73
2023/12/25 00:12:08;;;;;;;8.00;4.57;;;;;;;1.79;67.05;97685.91;4851594;29;20675;-75
2023/12/25 00:14:37;;;;;;;10.52;4.28;;;;;;;1.42;66.78;97650.25;4851869;29;20077;-73
2023/12/25 00:17:03;;;;;;;8.90;4.95;;;;;;;1.13;67.22;97607.72;4864539;29;20048;-73
2023/12/25 00:19:33;;;;;;;10.40;4.97;;;;;;;1.62;67.05;97707.38;4879308;29;20045;-73
2023/12/25 00:22:04;;;;;;;7.45;4.75;;;;;;;1.71;67.22;97734.69;4876154;29;20080;-73
2023/12/25 00:24:30;;;;;;;8.68;4.45;;;;;;;1.62;67.41;97740.72;4880336;29;20578;-74
2023/12/25 00:27:02;;;;;;;;;;;;;;;1.61;66.77;97741.56;4869727;29;20083;-74
2023/12/25 00:29:34;;;;;;;7.88;4.60;;;;;;;1.39;67.22;97710.09;4862509;29;19977;-73
2023/12/25 00:32:03;;;;;;;11.23;5.05;;;;;;;1.49;67.52;97745.06;4866865;29;20063;-74
2023/12/25 00:34:34;;;;;;;8.43;4.47;;;;;;;1.53;67.35;97747.59;4862616;29;20049;-74
2023/12/25 00:37:00;;;;;;;9.13;4.75;;;;;;;1.18;67.50;97691.41;4863789;29;20111;-74
2023/12/25 00:39:36;;;;;;;6.68;4.07;;;;;;;1.50;66.88;97749.31;4880032;29;20048;-74
2023/12/25 00:42:05;;;;;;;8.85;4.20;;;;;;;1.46;67.42;97749.34;4864988;29;20141;-74
2023/12/25 00:44:36;;;;;;;10.45;4.13;;;;;;;1.41;67.63;97749.38;4868236;29;20049;-75
2023/12/25 00:47:06;;;;;;;6.80;3.80;;;;;;;1.44;67.52;97754.47;4865569;29;20037;-75
2023/12/25 00:49:33;;;;;;;7.68;4.30;;;;;;;1.48;67.11;97769.00;4862733;29;20045;-75
2023/12/25 00:51:59;;;;;;;7.13;4.07;;;;;;;1.47;67.46;97763.88;4855471;29;20041;-76
2023/12/25 00:54:27;;;;;;;7.55;4.18;;;;;;;1.45;67.73;97760.47;4868513;29;20041;-75
2023/12/25 00:56:53;;;;;;;5.88;3.63;;;;;;;1.23;67.41;97723.81;4866197;29;20045;-75
2023/12/25 00:59:20;;;;;;;6.28;3.42;;;;;;;1.32;67.34;97741.72;4866468;29;20053;-75
2023/12/25 01:01:56;;;;;;;5.43;3.15;;;;;;;1.37;67.09;97746.81;4862710;29;20041;-75
2023/12/25 01:04:23;;;;;;;7.03;3.50;;;;;;;1.39;67.45;97745.97;4850355;29;20044;-74
2023/12/25 01:06:49;;;;;;;5.78;3.25;;;;;;;1.37;67.16;97745.13;4865133;29;20044;-74
2023/12/25 01:09:16;;;;;;;5.18;3.00;;;;;;;0.92;67.35;97682.97;4867091;29;20049;-73
2023/12/25 01:11:42;;;;;;;6.28;3.53;;;;;;;1.34;67.51;97743.41;4852339;29;20117;-75
2023/12/25 01:14:14;;;;;;;6.10;3.65;;;;;;;1.30;67.16;97746.00;4865443;29;20144;-72
2023/12/25 01:16:43;;;;;;;6.43;3.45;;;;;;;1.13;67.22;97720.44;4851805;29;20078;-72
2023/12/25 01:19:08;;;;;;;6.22;3.08;;;;;;;1.13;66.85;97733.25;4876797;29;20041;-71
2023/12/25 01:21:35;;;;;;;8.73;3.60;;;;;;;1.31;67.39;97757.97;4845492;29;20049;-70
2023/12/25 01:24:03;;;;;;;6.05;3.38;;;;;;;1.34;67.29;97761.34;4863087;29;20061;-72
2023/12/25 01:26:33;;;;;;;5.30;3.15;;;;;;;1.31;67.22;97743.47;4878803;29;20429;-72
2023/12/25 01:29:01;;;;;;;6.80;3.65;;;;;;;1.53;67.43;97778.38;4861367;29;20051;-71
2023/12/25 01:31:32;;;;;;;5.70;3.42;;;;;;;1.45;67.15;97763.88;4858967;29;20052;-71
2023/12/25 01:33:58;;;;;;;4.80;2.80;;;;;;;1.56;67.18;97780.94;4861148;29;20099;-71
2023/12/25 01:36:25;;;;;;;5.47;3.10;;;;;;;1.17;67.11;97714.47;4860332;29;20049;-76
2023/12/25 01:38:51;;;;;;;7.32;3.35;;;;;;;1.39;67.45;97735.72;4846668;29;20094;-75
2023/12/25 01:41:17;;;;;;;4.82;2.85;;;;;;;1.47;67.13;97757.03;4865000;29;20048;-75
2023/12/25 01:43:47;;;;;;;4.45;2.70;;;;;;;1.60;67.00;97755.25;4881689;29;20084;-76
2023/12/25 01:46:14;;;;;;;5.43;3.38;;;;;;;1.63;67.23;97770.63;4866396;29;20049;-76
2023/12/25 01:48:51;;;;;;;5.57;3.40;;;;;;;1.42;67.48;97717.78;4865924;29;20127;-74
2023/12/25 01:51:24;;;;;;;5.10;3.15;;;;;;;1.89;66.98;97789.28;4859025;29;20075;-72
2023/12/25 01:53:52;;;;;;;5.55;3.58;;;;;;;1.68;66.88;97747.50;4862230;29;20051;-73
2023/12/25 01:56:27;;;;;;;6.88;3.10;;;;;;;1.82;66.92;97773.06;4877409;29;20527;-73
2023/12/25 01:58:59;;;;;;;6.07;3.25;;;;;;;1.88;66.85;97769.63;4863033;29;20041;-72
2023/12/25 02:01:25;;;;;;;5.43;3.47;;;;;;;1.84;66.89;97763.66;4847708;29;20045;-73
2023/12/25 02:03:56;;;;;;;6.80;3.70;;;;;;;1.62;66.38;97727.91;4862219;29;20037;-72
2023/12/25 02:06:27;;;;;;;6.90;3.67;;;;;;;1.92;66.21;97782.44;4849891;29;20053;-72
2023/12/25 02:08:54;;;;;;;6.18;3.33;;;;;;;1.42;66.46;97692.13;4865613;29;20466;-72
2023/12/25 02:11:21;;;;;;;6.63;3.60;;;;;;;1.88;66.78;97783.31;4859679;29;20045;-75
2023/12/25 02:13:48;;;;;;;6.65;3.85;;;;;;;1.79;66.33;97770.53;4865204;29;20089;-74
2023/12/25 02:16:18;;;;;;;7.85;3.50;;;;;;;1.68;66.43;97756.94;4878397;29;20045;-76
2023/12/25 02:18:44;;;;;;;6.72;3.92;;;;;;;1.46;66.77;97731.41;4865748;29;20056;-76
2023/12/25 02:21:14;;;;;;;7.53;4.00;;;;;;;1.74;66.58;97778.25;4879446;29;20200;-75
2023/12/25 02:23:42;;;;;;;6.38;3.78;;;;;;;1.83;66.63;97792.75;4863981;29;20077;-75
2023/12/25 02:26:09;;;;;;;7.90;4.43;;;;;;;1.35;66.69;97704.13;4879252;29;20569;-76
2023/12/25 02:28:41;;;;;;;9.07;4.60;;;;;;;1.86;66.64;97767.06;4865457;29;20060;-77
2023/12/25 02:31:09;;;;;;;7.50;4.60;;;;;;;1.79;66.62;97763.69;4876437;29;20045;-79
2023/12/25 02:33:37;;;;;;;9.75;4.95;;;;;;;1.53;66.57;97722.84;4880229;29;20508;-75
2023/12/25 02:36:03;;;;;;;8.07;4.80;;;;;;;2.01;66.67;97786.66;4862192;29;20434;-75
2023/12/25 02:38:35;;;;;;;8.27;4.80;;;;;;;1.42;66.34;97710.09;4863198;29;20547;-73
2023/12/25 02:41:03;;;;;;;10.57;5.53;;;;;;;1.76;66.57;97762.88;4848545;29;20048;-73
2023/12/25 02:43:32;;;;;;;9.65;5.20;;;;;;;1.71;66.56;97750.06;4863413;29;20052;-72
2023/12/25 02:46:05;;;;;;;10.23;5.90;;;;;;;1.89;66.70;97790.16;4865992;29;20137;-73
2023/12/25 02:48:35;;;;;;;8.30;4.95;;;;;;;1.44;66.25;97717.75;4862532;29;20037;-73
2023/12/25 02:51:06;;;;;;;;;;;;;;;1.86;66.33;97789.31;4862076;29;20068;-73
2023/12/25 02:53:42;;;;;;;9.10;5.50;;;;;;;1.79;66.23;97797.03;4858629;29;19975;-71
2023/12/25 02:56:13;;;;;;;10.68;5.05;;;;;;;1.37;66.25;97732.31;4878546;29;20101;-71
2023/12/25 02:58:40;;;;;;;10.60;4.88;;;;;;;1.61;66.12;97767.22;4850916;29;20489;-71
2023/12/25 03:01:28;;;;;;;9.40;5.18;;;;;;;1.45;66.10;97751.06;4861714;29;20079;-71
2023/12/25 03:03:57;;;;;;;10.13;4.70;;;;;;;0.88;65.74;97667.63;4875416;29;20052;-71
2023/12/25 03:06:31;;;;;;;8.95;5.07;;;;;;;1.39;65.86;97748.53;4863859;29;20084;-71
2023/12/25 03:09:00;;;;;;;8.35;4.70;;;;;;;1.45;65.88;97766.44;4849364;29;20044;-71
2023/12/25 03:11:26;;;;;;;7.45;4.80;;;;;;;1.46;66.32;97770.69;4874450;29;20512;-71
2023/12/25 03:13:53;;;;;;;7.07;4.20;;;;;;;1.45;66.53;97776.69;4876204;29;20051;-71
2023/12/25 03:16:22;;;;;;;7.57;4.57;;;;;;;1.20;66.18;97737.50;4860868;29;20051;-71
2023/12/25 03:18:48;;;;;;;8.25;4.88;;;;;;;1.61;65.82;97799.72;4877116;29;20821;-71
2023/12/25 03:21:17;;;;;;;6.97;3.88;;;;;;;1.15;66.42;97732.41;4861407;29;20049;-70
2023/12/25 03:23:43;;;;;;;7.53;4.10;;;;;;;1.22;65.92;97743.47;4846770;29;20045;-70
2023/12/25 03:26:09;;;;;;;4.60;2.90;;;;;;;1.48;65.96;97796.34;4864362;29;20049;-70
2023/12/25 03:28:38;;;;;;;5.25;3.15;;;;;;;1.19;66.85;97766.56;4877104;29;20041;-71
2023/12/25 03:31:04;;;;;;;5.07;3.05;;;;;;;1.32;66.66;97772.47;4878144;29;20049;-71
2023/12/25 03:33:30;;;;;;;4.85;3.00;;;;;;;1.46;66.58;97793.78;4845236;29;20041;-71
2023/12/25 03:35:56;;;;;;;4.40;2.85;;;;;;;1.45;66.30;97792.06;4862076;29;20045;-70
2023/12/25 03:38:24;;;;;;;5.18;2.80;;;;;;;1.26;66.27;97760.56;4863223;29;20051;-71
2023/12/25 03:40:51;;;;;;;4.60;2.92;;;;;;;1.27;66.23;97766.53;4861626;29;20051;-71
2023/12/25 03:43:17;;;;;;;4.05;2.45;;;;;;;0.65;65.88;97684.78;4864587;29;20050;-71
2023/12/25 03:45:47;;;;;;;5.25;2.95;;;;;;;1.24;66.34;97766.53;4866625;29;20053;-72
2023/12/25 03:48:16;;;;;;;5.53;3.08;;;;;;;1.40;66.25;97782.69;4856897;29;20048;-71
2023/12/25 03:50:42;;;;;;;6.80;4.07;;;;;;;1.25;65.96;97763.97;4865990;29;20513;-71
2023/12/25 03:53:17;;;;;;;5.00;2.97;;;;;;;1.41;66.53;97790.41;4853085;29;20033;-73
2023/12/25 03:55:53;;;;;;;7.13;4.00;;;;;;;1.25;66.14;97768.22;4864571;29;20081;-71
2023/12/25 03:58:26;;;;;;;7.22;3.58;;;;;;;0.88;66.38;97712.88;4880749;29;20541;-72
2023/12/25 04:00:53;;;;;;;9.43;3.50;;;;;;;1.25;66.62;97786.16;4866243;29;20124;-73
2023/12/25 04:03:19;;;;;;;5.78;3.15;;;;;;;0.70;66.54;97706.94;4864690;29;20049;-72
2023/12/25 04:05:48;;;;;;;6.82;3.42;;;;;;;1.10;66.66;97776.84;4867257;29;20053;-74
2023/12/25 04:08:16;;;;;;;5.43;3.17;;;;;;;1.17;66.34;97792.19;4869748;29;20075;-74
2023/12/25 04:10:43;;;;;;;5.90;2.92;;;;;;;1.00;66.57;97779.44;4865231;29;20041;-74
2023/12/25 04:13:12;;;;;;;5.43;2.83;;;;;;;1.05;67.17;97779.41;4854172;29;20040;-74
2023/12/25 04:15:38;;;;;;;5.30;2.88;;;;;;;0.97;66.65;97765.78;4881481;29;20052;-74
2023/12/25 04:18:04;;;;;;;5.57;2.60;;;;;;;1.02;66.73;97780.28;4880450;29;20051;-73
2023/12/25 04:20:31;;;;;;;4.28;2.80;;;;;;;0.99;66.72;97761.50;4852187;29;20045;-72
2023/12/25 04:23:03;;;;;;;6.78;2.90;;;;;;;0.76;66.31;97734.25;4868507;29;20045;-74
2023/12/25 04:25:30;;;;;;;5.03;3.00;;;;;;;0.60;66.71;97707.84;4852841;29;20096;-74
2023/12/25 04:28:00;;;;;;;6.55;3.13;;;;;;;1.02;66.50;97784.53;4868210;29;20045;-74
2023/12/25 04:30:26;;;;;;;5.55;2.75;;;;;;;0.41;67.08;97694.22;4866297;29;20040;-72
2023/12/25 04:32:54;;;;;;;4.88;2.70;;;;;;;0.92;66.81;97775.19;4882292;29;20478;-72
2023/12/25 04:35:21;;;;;;;5.35;3.03;;;;;;;0.78;66.95;97753.00;4838057;29;20137;-73
2023/12/25 04:37:51;;;;;;;4.55;2.88;;;;;;;0.87;66.88;97770.91;4849751;29;20052;-72
2023/12/25 04:40:21;;;;;;;4.90;2.85;;;;;;;0.84;66.85;97772.66;4878425;29;20051;-72
2023/12/25 04:42:47;;;;;;;4.20;2.83;;;;;;;0.87;67.39;97767.53;4862225;29;20042;-73
2023/12/25 04:45:18;;;;;;;6.47;3.42;;;;;;;0.88;67.20;97771.78;4849504;29;20060;-72
2023/12/25 04:47:44;;;;;;;4.82;2.88;;;;;;;1.00;67.01;97776.00;4881585;29;20136;-73
2023/12/25 04:50:16;;;;;;;5.15;2.85;;;;;;;0.63;67.30;97706.97;4876799;29;20622;-73
2023/12/25 04:52:43;;;;;;;4.47;2.63;;;;;;;0.56;67.49;97703.56;4879274;29;20064;-73
2023/12/25 04:55:09;;;;;;;4.72;2.85;;;;;;;0.88;67.10;97752.13;4865780;29;20967;-73
2023/12/25 04:57:35;;;;;;;3.83;2.65;;;;;;;1.04;66.67;97781.13;4881046;29;20072;-72
2023/12/25 05:00:04;;;;;;;4.97;2.90;;;;;;;0.94;66.94;97764.06;4851619;29;20041;-74
2023/12/25 05:02:32;;;;;;;4.00;2.42;;;;;;;0.89;66.78;97758.97;4865598;29;20561;-73
2023/12/25 05:05:02;;;;;;;3.42;2.00;;;;;;;0.80;66.75;97750.44;4865799;29;20052;-73
2023/12/25 05:07:29;;;;;;;5.07;3.00;;;;;;;0.89;66.96;97776.91;4878838;29;20055;-76
2023/12/25 05:10:03;;;;;;;4.28;2.45;;;;;;;0.83;66.92;97764.09;4879726;29;20044;-76
2023/12/25 05:12:37;;;;;;;4.07;2.22;;;;;;;0.65;67.14;97741.09;4879215;29;20037;-75
2023/12/25 05:15:06;;;;;;;5.47;2.90;;;;;;;0.45;66.82;97706.16;4879488;29;20093;-76
2023/12/25 05:17:32;;;;;;;4.22;2.60;;;;;;;0.66;66.89;97753.03;4865524;29;20041;-75
2023/12/25 05:20:02;;;;;;;5.55;3.05;;;;;;;0.73;67.07;97759.88;4866726;29;20129;-76
2023/12/25 05:22:39;;;;;;;;;;;;;;;0.82;67.14;97782.88;4876703;29;20501;-75
2023/12/25 05:25:11;;;;;;;9.88;2.95;;;;;;;0.60;67.27;97756.47;4877206;29;20075;-75
2023/12/25 05:27:38;;;;;;;3.83;2.50;;;;;;;0.59;67.09;97758.16;4867936;29;20049;-73
2023/12/25 05:30:08;;;;;;;7.03;2.70;;;;;;;0.38;67.15;97719.81;4863681;29;20098;-73
2023/12/25 05:32:44;;;;;;;3.83;2.35;;;;;;;0.59;67.19;97757.31;4858370;29;20524;-72
2023/12/25 05:35:10;;;;;;;5.13;2.88;;;;;;;0.48;67.34;97749.66;4863781;29;20045;-76
2023/12/25 05:37:36;;;;;;;3.85;2.30;;;;;;;0.61;67.39;97765.84;4867862;29;20048;-75
2023/12/25 05:40:10;;;;;;;6.53;2.90;;;;;;;0.05;67.42;97678.91;4835279;29;20622;-74
2023/12/25 05:42:39;;;;;;;5.72;2.55;;;;;;;0.60;67.51;97772.66;4861009;29;20045;-74
2023/12/25 05:45:11;;;;;;;4.85;2.63;;;;;;;0.43;67.53;97756.47;4880241;29;20938;-73
2023/12/25 05:47:37;;;;;;;5.68;2.65;;;;;;;0.45;67.72;97759.91;4867246;29;20040;-74
2023/12/25 05:50:11;;;;;;;4.05;2.47;;;;;;;0.15;67.86;97702.75;4878099;29;20228;-73
2023/12/25 05:52:40;;;;;;;4.05;2.55;;;;;;;0.57;67.50;97754.75;4876405;29;20040;-74
2023/12/25 05:55:10;;;;;;;5.60;2.72;;;;;;;0.27;67.16;97715.56;4865577;29;20176;-72
2023/12/25 05:57:42;;;;;;;5.30;3.50;;;;;;;0.21;67.01;97715.56;4863940;29;20052;-72
2023/12/25 06:00:08;;;;;;;4.28;2.53;;;;;;;0.53;67.77;97767.56;4878289;29;20226;-72
2023/12/25 06:02:40;;;;;;;4.45;2.78;;;;;;;0.51;66.96;97782.94;4878443;29;20045;-73
2023/12/25 06:05:10;;;;;;;4.82;2.67;;;;;;;-0.05;67.51;97697.66;4847918;29;20049;-71
2023/12/25 06:07:39;;;;;;;5.53;2.35;;;;;;;0.60;67.39;97798.25;4862914;29;20048;-74
2023/12/25 06:10:10;;;;;;;4.05;2.60;;;;;;;0.49;67.70;97779.53;4877321;29;20045;-75
2023/12/25 06:12:40;;;;;;;;;;;;;;;0.63;67.48;97799.13;4851138;29;20497;-74
2023/12/25 06:15:08;;;;;;;5.82;2.80;;;;;;;0.10;67.10;97709.63;4878020;29;20409;-76
2023/12/25 06:17:52;;;;;;;5.25;2.53;;;;;;;0.45;67.49;97782.94;4864863;29;20093;-76
2023/12/25 06:20:18;;;;;;;4.13;2.35;;;;;;;0.24;67.03;97748.81;4860866;29;20049;-76
2023/12/25 06:22:45;;;;;;;5.40;2.40;;;;;;;0.38;67.12;97784.66;4866238;29;20102;-74
2023/12/25 06:25:11;;;;;;;6.95;2.60;;;;;;;0.40;67.54;97782.06;4877563;29;20045;-75
2023/12/25 06:27:43;;;;;;;4.18;2.25;;;;;;;0.22;67.13;97757.34;4848573;29;20068;-75
2023/12/25 06:30:13;;;;;;;4.28;2.85;;;;;;;0.13;67.53;97732.59;4847152;29;20049;-77
2023/12/25 06:32:43;;;;;;;4.72;2.75;;;;;;;0.04;66.86;97719.84;4884350;29;20093;-78
2023/12/25 06:35:10;;;;;;;3.40;2.25;;;;;;;0.03;66.92;97723.25;4866434;29;20048;-77
2023/12/25 06:37:39;;;;;;;4.80;2.55;;;;;;;0.22;67.23;97763.31;4878654;29;20186;-77
2023/12/25 06:40:06;;;;;;;4.45;2.70;;;;;;;0.34;67.10;97782.94;4866515;29;20079;-78
2023/12/25 06:42:32;;;;;;;4.10;2.42;;;;;;;0.36;67.00;97786.34;4878156;29;20048;-75
2023/12/25 06:44:58;;;;;;;4.75;2.97;;;;;;;0.27;66.89;97776.97;4850558;29;20127;-76
2023/12/25 06:47:27;;;;;;;6.07;2.97;;;;;;;-0.05;66.92;97733.47;4866104;29;20049;-76
2023/12/25 06:49:59;;;;;;;5.55;3.03;;;;;;;0.09;67.46;97733.47;4865643;29;20055;-76
2023/12/25 06:52:33;;;;;;;4.82;2.83;;;;;;;0.11;67.71;97732.63;4883427;29;20040;-78
2023/12/25 06:55:03;;;;;;;3.92;2.60;;;;;;;0.52;66.99;97789.75;4879042;29;20143;-77
2023/12/25 06:57:38;;;;;;;5.60;2.92;;;;;;;0.19;67.00;97730.06;4869733;29;20083;-74
2023/12/25 07:00:05;;;;;;;6.70;3.08;;;;;;;0.57;67.15;97782.91;4868718;29;20078;-74
2023/12/25 07:02:42;;;;;;;4.70;2.72;;;;;;;-0.01;67.17;97684.88;4866623;29;20045;-75
2023/12/25 07:05:09;;;;;;;6.00;3.75;;;;;;;0.31;66.89;97715.56;4876295;29;20057;-76
2023/12/25 07:07:36;;;;;;;4.85;2.92;;;;;;;0.38;67.09;97717.25;4882565;29;20045;-75
2023/12/25 07:10:14;;;;;;;5.75;3.58;;;;;;;0.35;66.61;97707.00;4868077;29;20055;-77
2023/12/25 07:12:45;;;;;;;5.65;3.40;;;;;;;0.83;66.58;97787.13;4866619;29;20108;-73
2023/12/25 07:15:12;;;;;;;7.03;3.05;;;;;;;0.71;67.12;97761.56;4866884;29;20064;-73
2023/12/25 07:17:38;;;;;;;6.50;3.25;;;;;;;0.77;66.81;97761.56;4851039;29;20060;-71
2023/12/25 07:20:18;;;;;;;6.47;3.00;;;;;;;0.82;66.93;97772.63;4862642;29;20076;-74
2023/12/25 07:22:54;;;;;;;7.25;3.53;;;;;;;0.35;67.11;97702.75;4850710;29;20041;-74
2023/12/25 07:25:20;;;;;;;5.35;3.00;;;;;;;1.00;66.57;97791.38;4853061;29;20045;-70
2023/12/25 07:27:46;;;;;;;4.47;2.83;;;;;;;0.99;66.81;97782.00;4834279;29;20045;-72
2023/12/25 07:30:17;;;;;;;5.15;3.40;;;;;;;0.88;66.58;97752.13;4875982;29;20051;-71
2023/12/25 07:32:46;;;;;;;5.05;2.88;;;;;;;0.67;66.02;97717.19;4859221;29;20165;-72
2023/12/25 07:35:13;;;;;;;4.55;2.72;;;;;;;0.95;66.71;97764.94;4880441;29;20040;-71
2023/12/25 07:37:42;;;;;;;4.78;2.90;;;;;;;0.62;66.24;97706.13;4848760;29;20037;-71
2023/12/25 07:40:10;;;;;;;4.97;2.63;;;;;;;1.07;66.04;97769.16;4859754;29;20144;-72
2023/12/25 07:42:37;;;;;;;7.93;2.90;;;;;;;1.04;66.14;97752.94;4862993;29;20070;-72
2023/12/25 07:45:04;;;;;;;5.93;2.88;;;;;;;1.11;66.24;97764.03;4848316;29;20049;-72
2023/12/25 07:47:31;;;;;;;5.35;2.78;;;;;;;1.05;65.96;97762.34;4880927;29;20074;-73
2023/12/25 07:50:00;;;;;;;5.00;2.65;;;;;;;0.37;65.77;97656.69;4862320;29;20041;-72
2023/12/25 07:52:26;;;;;;;7.70;3.92;;;;;;;0.69;66.10;97706.97;4878927;29;20052;-73
2023/12/25 07:54:54;;;;;;;7.05;3.78;;;;;;;1.02;65.89;97746.09;4876902;29;20044;-73
2023/12/25 07:57:21;;;;;;;5.82;2.97;;;;;;;1.23;66.11;97770.81;4875615;29;20154;-68
2023/12/25 07:59:53;;;;;;;6.07;3.25;;;;;;;0.80;66.05;97710.31;4863583;29;20041;-72
2023/12/25 08:02:24;;;;;;;5.18;3.30;;;;;;;0.97;66.09;97735.03;4881147;29;20085;-69
2023/12/25 08:04:55;;;;;;;6.18;3.10;;;;;;;1.00;66.14;97738.44;4865699;29;20061;-68
2023/12/25 08:08:02;;;;;;;5.47;2.85;;;;;;;1.24;65.69;97772.53;4862678;29;20045;-69
2023/12/25 08:10:31;;;;;;;5.10;3.13;;;;;;;1.11;66.18;97733.28;4880076;29;20045;-70
2023/12/25 08:12:59;;;;;;;5.43;3.20;;;;;;;1.20;66.27;97766.56;4863721;29;20094;-69
2023/12/25 08:15:26;;;;;;;7.00;3.70;;;;;;;1.16;66.25;97744.38;4879748;29;20102;-66
2023/12/25 08:18:04;;;;;;;7.32;3.58;;;;;;;1.18;65.87;97742.66;4877867;29;20140;-71
2023/12/25 08:20:34;;;;;;;7.18;4.07;;;;;;;0.92;65.94;97668.44;4882159;29;20046;-71
2023/12/25 08:23:03;;;;;;;7.10;3.95;;;;;;;1.40;65.96;97757.06;4880816;29;20104;-75
2023/12/25 08:25:29;;;;;;;7.18;3.67;;;;;;;0.96;65.80;97690.63;4865437;29;20060;-67
2023/12/25 08:28:10;;;;;;;5.35;3.10;;;;;;;1.34;65.58;97734.88;4883208;29;20098;-67
2023/12/25 08:30:36;;;;;;;5.85;3.78;;;;;;;1.44;65.98;97751.91;4867177;29;20085;-68
2023/12/25 08:33:06;;;;;;;6.05;3.90;;;;;;;1.26;65.87;97709.31;4852247;29;20101;-67
2023/12/25 08:35:32;;;;;;;8.05;3.63;;;;;;;1.58;65.66;97738.19;4881535;29;20041;-67
2023/12/25 08:37:58;;;;;;;6.10;3.65;;;;;;;1.57;65.89;97718.53;4885959;29;20041;-69
2023/12/25 08:40:27;;;;;;;5.25;3.17;;;;;;;1.23;65.51;97644.38;4883632;29;20041;-68
2023/12/25 08:42:57;;;;;;;5.82;3.25;;;;;;;1.33;65.87;97628.09;4869271;29;20045;-68
2023/12/25 08:45:32;;;;;;;6.80;3.28;;;;;;;1.86;65.71;97694.41;4866404;29;20114;-66
2023/12/25 08:47:58;;;;;;;4.97;3.20;;;;;;;1.94;65.87;97688.38;4888120;29;20136;-68
2023/12/25 08:50:27;;;;;;;7.22;3.25;;;;;;;2.17;65.15;97701.84;4871241;29;20051;-69
2023/12/25 08:52:55;;;;;;;5.95;3.33;;;;;;;1.98;65.07;97678.91;4869303;29;20175;-69
2023/12/25 08:55:22;;;;;;;5.88;3.50;;;;;;;2.10;65.16;97663.41;4869144;29;20052;-74
2023/12/25 08:57:49;;;;;;;5.43;3.30;;;;;;;2.18;65.14;97667.63;4881010;29;20037;-69
2023/12/25 09:00:20;;;;;;;4.90;3.40;;;;;;;2.35;65.01;97683.72;4869898;29;20084;-69
2023/12/25 09:02:49;;;;;;;5.15;2.70;;;;;;;2.40;64.27;97696.53;4871635;29;20041;-68
2023/12/25 09:05:15;;;;;;;3.83;2.55;;;;;;;2.33;64.40;97685.44;4866738;29;20064;-71
2023/12/25 09:07:41;;;;;;;4.28;2.60;;;;;;;1.99;64.23;97631.88;4871145;29;20049;-70
2023/12/25 09:10:16;;;;;;;5.60;2.80;;;;;;;1.75;64.06;97603.00;4855004;29;20047;-69
2023/12/25 09:12:48;;;;;;;4.32;2.80;;;;;;;2.30;64.18;97684.63;4863797;29;20561;-71
2023/12/25 09:15:23;;;;;;;5.13;2.72;;;;;;;2.15;64.70;97642.00;4869651;29;20048;-70
2023/12/25 09:17:59;;;;;;;5.20;2.55;;;;;;;2.41;63.83;97675.13;4868935;29;20101;-71
2023/12/25 09:20:32;;;;;;;4.40;2.78;;;;;;;1.81;63.80;97573.88;4855605;29;20093;-72
2023/12/25 09:22:59;;;;;;;3.13;2.33;;;;;;;2.18;63.59;97636.84;4882291;29;20069;-71
2023/12/25 09:25:34;;;;;;;3.95;2.90;;;;;;;2.40;63.02;97678.56;4854431;29;20045;-69
2023/12/25 09:28:03;;;;;;;3.78;2.28;;;;;;;1.79;63.45;97604.69;4858032;29;20575;-70
2023/12/25 09:30:29;;;;;;;4.82;2.60;;;;;;;1.99;63.03;97631.03;4864013;29;20041;-73
2023/12/25 09:33:05;;;;;;;3.63;2.50;;;;;;;2.28;63.36;97661.56;4885032;29;20042;-72
2023/12/25 09:35:55;;;;;;;4.78;2.40;;;;;;;2.33;62.69;97669.19;4876945;29;20041;-71
2023/12/25 09:38:30;;;;;;;4.03;2.40;;;;;;;2.39;63.51;97667.41;4887470;29;20508;-72
2023/12/25 09:41:10;;;;;;;4.03;2.45;;;;;;;1.64;62.71;97540.72;4867367;29;20045;-78
2023/12/25 09:44:08;;;;;;;3.67;2.40;;;;;;;2.31;62.37;97648.69;4885322;29;20049;-73
2023/12/25 09:46:40;;;;;;;5.40;2.80;;;;;;;1.90;62.40;97570.38;4875389;29;20064;-73
2023/12/25 09:49:06;;;;;;;5.40;2.25;;;;;;;1.92;62.39;97573.78;4883195;29;20108;-72
2023/12/25 09:51:36;;;;;;;7.57;4.65;;;;;;;2.21;62.09;97634.25;4869503;29;20090;-74
2023/12/25 09:54:26;;;;;;;8.75;3.45;;;;;;;2.10;62.68;97613.81;4883096;29;20131;-71
2023/12/25 09:57:17;;;;;;;3.60;2.28;;;;;;;1.87;62.09;97583.25;4867443;29;20044;-72
2023/12/25 09:59:53;;;;;;;4.88;2.50;;;;;;;1.68;62.17;97556.94;4865801;29;20032;-73
2023/12/25 10:02:54;;;;;;;4.38;2.42;;;;;;;1.54;61.24;97528.84;4881237;29;20052;-68
2023/12/25 10:05:26;;;;;;;4.95;2.20;;;;;;;2.12;61.81;97630.06;4861087;29;20056;-68
2023/12/25 10:08:24;;;;;;;4.32;2.10;;;;;;;1.78;61.62;97590.16;4864876;29;20037;-69
2023/12/25 10:11:08;;;;;;;4.60;2.20;;;;;;;1.87;61.56;97616.59;4836128;29;20037;-70
2023/12/25 10:13:35;;;;;;;3.63;1.92;;;;;;;1.89;61.72;97630.25;4865355;29;20082;-70
2023/12/25 10:16:02;;;;;;;3.92;2.22;;;;;;;1.88;61.49;97631.09;4851272;29;20473;-71
2023/12/25 10:18:44;;;;;;;5.30;2.22;;;;;;;1.82;61.29;97629.44;4864880;29;20037;-70
2023/12/25 10:21:11;;;;;;;4.20;2.28;;;;;;;1.09;61.13;97527.47;4866649;29;20044;-71
2023/12/25 10:23:39;;;;;;;3.42;2.00;;;;;;;1.36;61.64;97587.09;4865692;29;20493;-74
2023/12/25 10:26:11;;;;;;;4.32;2.47;;;;;;;1.52;61.37;97617.72;4882559;29;20105;-73
2023/12/25 10:28:49;;;;;;;4.13;2.20;;;;;;;0.99;60.85;97538.66;4879877;29;20041;-72
2023/12/25 10:31:30;;;;;;;3.88;2.50;;;;;;;1.27;61.83;97594.81;4844517;29;20147;-72
2023/12/25 10:33:59;;;;;;;3.67;2.00;;;;;;;1.27;62.20;97587.13;4849176;29;20083;-69
2023/12/25 10:36:40;;;;;;;3.45;2.05;;;;;;;1.39;62.06;97599.88;4867200;29;20542;-70
2023/12/25 10:39:10;;;;;;;3.70;1.92;;;;;;;1.47;61.99;97618.59;4881451;29;20052;-73
2023/12/25 10:41:37;;;;;;;4.18;2.03;;;;;;;1.26;61.51;97582.88;4865811;29;20072;-73
2023/12/25 10:44:09;;;;;;;2.85;1.75;;;;;;;1.26;61.47;97586.31;4851699;29;20084;-71
2023/12/25 10:46:42;;;;;;;4.55;1.98;;;;;;;1.25;61.55;97586.28;4865682;29;20048;-72
2023/12/25 10:49:19;;;;;;;3.38;1.80;;;;;;;1.15;62.42;97573.56;4866298;29;20045;-72
2023/12/25 10:51:56;;;;;;;3.03;2.10;;;;;;;1.23;61.68;97575.19;4876773;29;20044;-73
2023/12/25 10:54:25;;;;;;;1.73;1.52;;;;;;;0.92;61.67;97519.06;4864156;29;20060;-71
2023/12/25 10:56:52;;;;;;;4.05;1.80;;;;;;;1.24;61.67;97567.53;4851149;29;20579;-77
2023/12/25 10:59:35;;;;;;;2.28;1.83;;;;;;;0.94;61.47;97518.19;4864196;29;20461;-70
2023/12/25 11:02:13;;;;;;;3.17;1.83;;;;;;;1.03;61.45;97530.09;4862993;29;20041;-68
2023/12/25 11:04:47;;;;;;;3.75;2.20;;;;;;;1.13;61.47;97554.78;4855652;29;20037;-71
2023/12/25 11:07:16;;;;;;;4.32;2.05;;;;;;;1.32;61.32;97580.28;4854301;29;20045;-64
2023/12/25 11:09:43;;;;;;;2.22;1.55;;;;;;;0.84;60.73;97517.41;4875666;29;20043;-68
2023/12/25 11:12:13;;;;;;;3.33;1.85;;;;;;;0.99;61.26;97541.22;4873564;29;20048;-69
2023/12/25 11:14:42;;;;;;;2.47;1.70;;;;;;;0.78;61.05;97496.94;4878375;29;20048;-66
2023/12/25 11:17:18;;;;;;;3.20;2.00;;;;;;;1.20;61.16;97550.47;4835321;29;20101;-66
2023/12/25 11:19:46;;;;;;;4.53;2.00;;;;;;;1.14;61.22;97546.25;4876818;29;20184;-66
2023/12/25 11:22:29;;;;;;;3.45;1.90;;;;;;;1.26;61.44;97563.25;4862431;29;20401;-68
2023/12/25 11:25:02;;;;;;;3.17;1.90;;;;;;;1.16;61.04;97546.22;4861080;29;20037;-69
2023/12/25 11:27:37;;;;;;;2.75;1.90;;;;;;;1.17;61.25;97530.00;4862036;29;20744;-66
2023/12/25 11:30:10;;;;;;;2.92;2.10;;;;;;;1.33;61.27;97531.56;4874113;29;20078;-66
2023/12/25 11:32:48;;;;;;;3.08;1.83;;;;;;;1.53;61.01;97547.66;4872787;29;20037;-67
2023/12/25 11:35:32;;;;;;;3.03;1.83;;;;;;;1.44;60.88;97534.03;4862636;29;20040;-66
2023/12/25 11:38:27;;;;;;;2.63;1.75;;;;;;;1.45;60.91;97535.75;4875527;29;21884;-68
2023/12/25 11:41:01;;;;;;;2.30;1.70;;;;;;;1.39;60.65;97524.69;4863750;29;20047;-70
2023/12/25 11:43:30;;;;;;;4.20;2.17;;;;;;;1.09;60.17;97478.81;4864515;29;20041;-72
2023/12/25 11:46:14;;;;;;;3.10;1.85;;;;;;;1.26;60.73;97503.44;4859845;29;20037;-71
2023/12/25 11:49:00;;;;;;;3.30;2.10;;;;;;;1.13;60.87;97483.06;4865439;29;20053;-72
2023/12/25 11:51:29;;;;;;;3.80;1.70;;;;;;;1.44;60.51;97518.66;4857829;29;20141;-70
2023/12/25 11:54:04;;;;;;;2.78;2.05;;;;;;;1.29;60.47;97488.91;4877422;29;20052;-72
2023/12/25 11:56:47;;;;;;;3.45;1.80;;;;;;;1.49;60.29;97519.47;4872862;29;20078;-71
2023/12/25 11:59:20;;;;;;;2.13;1.50;;;;;;;1.49;59.88;97521.19;4874053;29;20037;-71